Time;durP1;ratioP1;P1;durP2;ratioP2;P2;SDS_P1;SDS_P2;PMS_P1;PMS_P2;Temp;Humidity;BMP_temperature;BMP_pressure;BME280_temperature;BME280_humidity;BME280_pressure;Samples;Min_cycle;Max_cycle;Signal;HPM_P1;HPM_P2
2021/09/05 00:01:05;;;;;;;7.70;3.58;;;;;;;;;;5025649;28;20136;-64
2021/09/05 00:03:32;;;;;;;6.93;3.70;;;;;;;;;;5022562;28;20052;-64
2021/09/05 00:05:59;;;;;;;6.85;3.25;;;;;;;;;;5022403;28;20087;-64
2021/09/05 00:08:26;;;;;;;9.77;4.28;;;;;;;;;;5023283;28;20061;-64
2021/09/05 00:10:52;;;;;;;7.15;3.45;;;;;;;;;;5022729;28;20129;-64
2021/09/05 00:13:19;;;;;;;9.13;3.70;;;;;;;;;;5021572;28;20045;-64
2021/09/05 00:15:46;;;;;;;7.15;3.75;;;;;;;;;;5027769;28;20124;-64
2021/09/05 00:18:12;;;;;;;6.97;3.45;;;;;;;;;;5019105;28;20086;-64
2021/09/05 00:20:39;;;;;;;7.10;3.28;;;;;;;;;;5019488;28;20084;-64
2021/09/05 00:23:05;;;;;;;4.55;2.53;;;;;;;;;;5023430;28;20141;-63
2021/09/05 00:25:32;;;;;;;9.45;3.30;;;;;;;;;;5026987;28;20137;-64
2021/09/05 00:27:59;;;;;;;7.93;3.25;;;;;;;;;;5022045;28;20581;-64
2021/09/05 00:30:26;;;;;;;5.03;2.72;;;;;;;;;;5021471;28;20055;-63
2021/09/05 00:32:52;;;;;;;5.22;3.03;;;;;;;;;;5027017;28;20042;-63
2021/09/05 00:35:19;;;;;;;5.95;2.63;;;;;;;;;;5023432;28;20140;-64
2021/09/05 00:37:46;;;;;;;9.75;2.60;;;;;;;;;;5022139;28;20473;-64
2021/09/05 00:40:12;;;;;;;7.60;2.40;;;;;;;;;;5021141;28;20060;-64
2021/09/05 00:42:39;;;;;;;6.18;2.30;;;;;;;;;;5029697;28;20496;-64
2021/09/05 00:45:06;;;;;;;4.10;2.03;;;;;;;;;;5025087;28;20589;-63
2021/09/05 00:47:35;;;;;;;8.95;2.40;;;;;;;;;;5026655;28;20859;-63
2021/09/05 00:50:02;;;;;;;4.13;2.53;;;;;;;;;;5027793;28;20072;-64
2021/09/05 00:52:29;;;;;;;7.75;2.65;;;;;;;;;;5029093;28;20579;-63
2021/09/05 00:54:56;;;;;;;6.32;3.08;;;;;;;;;;5028226;28;20145;-63
2021/09/05 00:57:23;;;;;;;7.75;3.10;;;;;;;;;;5028345;28;20081;-64
2021/09/05 00:59:50;;;;;;;6.97;2.58;;;;;;;;;;5025061;28;20091;-64
2021/09/05 01:02:16;;;;;;;8.30;2.75;;;;;;;;;;5028448;28;20052;-63
2021/09/05 01:04:44;;;;;;;4.40;2.67;;;;;;;;;;5025411;28;20056;-63
2021/09/05 01:07:11;;;;;;;7.68;3.08;;;;;;;;;;5023904;28;20120;-63
2021/09/05 01:09:37;;;;;;;5.43;2.53;;;;;;;;;;5027195;28;20092;-63
2021/09/05 01:12:04;;;;;;;5.03;3.30;;;;;;;;;;5024742;28;20468;-64
2021/09/05 01:14:30;;;;;;;10.20;3.00;;;;;;;;;;5023532;28;20056;-64
2021/09/05 01:16:57;;;;;;;7.13;2.90;;;;;;;;;;5023882;28;20488;-64
2021/09/05 01:19:23;;;;;;;5.47;2.63;;;;;;;;;;5022229;28;20598;-64
2021/09/05 01:21:51;;;;;;;3.80;2.42;;;;;;;;;;5029340;28;20120;-64
2021/09/05 01:24:19;;;;;;;4.32;2.58;;;;;;;;;;5028614;28;20133;-64
2021/09/05 01:26:45;;;;;;;;;;;;;;;;;;5028045;28;20087;-63
2021/09/05 01:29:12;;;;;;;5.43;2.67;;;;;;;;;;5024982;28;19960;-63
2021/09/05 01:31:46;;;;;;;4.93;2.47;;;;;;;;;;5025901;28;20126;-64
2021/09/05 01:34:14;;;;;;;5.05;2.45;;;;;;;;;;5029394;28;20136;-64
2021/09/05 01:36:41;;;;;;;6.03;2.80;;;;;;;;;;5026547;28;20124;-63
2021/09/05 01:39:08;;;;;;;3.78;2.20;;;;;;;;;;5021361;28;20473;-64
2021/09/05 01:41:35;;;;;;;;;;;;;;;;;;5026770;28;20053;-63
2021/09/05 01:44:03;;;;;;;2.88;2.08;;;;;;;;;;5026341;28;19921;-63
2021/09/05 01:46:29;;;;;;;;;;;;;;;;;;5023962;28;20081;-63
2021/09/05 01:48:57;;;;;;;4.95;2.22;;;;;;;;;;5027580;28;19974;-64
2021/09/05 01:51:24;;;;;;;5.82;2.53;;;;;;;;;;5023098;28;20111;-63
2021/09/05 01:53:50;;;;;;;6.80;2.28;;;;;;;;;;5022012;28;20088;-63
2021/09/05 01:56:16;;;;;;;3.88;2.08;;;;;;;;;;5023861;28;20080;-63
2021/09/05 01:58:43;;;;;;;4.07;2.45;;;;;;;;;;5022465;28;20091;-63
2021/09/05 02:01:10;;;;;;;3.33;1.95;;;;;;;;;;5026134;28;20568;-64
2021/09/05 02:03:37;;;;;;;3.78;2.50;;;;;;;;;;5026771;28;20041;-63
2021/09/05 02:06:04;;;;;;;2.33;1.90;;;;;;;;;;5021207;28;20137;-63
2021/09/05 02:08:31;;;;;;;10.10;2.63;;;;;;;;;;5025277;28;20088;-63
2021/09/05 02:10:57;;;;;;;6.57;2.95;;;;;;;;;;5025357;28;20129;-63
2021/09/05 02:13:24;;;;;;;6.40;2.80;;;;;;;;;;5021864;28;20136;-63
2021/09/05 02:15:51;;;;;;;7.70;3.08;;;;;;;;;;5023925;28;20312;-63
2021/09/05 02:18:17;;;;;;;7.13;2.95;;;;;;;;;;5021959;28;20077;-63
2021/09/05 02:20:44;;;;;;;7.45;2.78;;;;;;;;;;5025444;28;20081;-63
2021/09/05 02:23:11;;;;;;;5.18;2.70;;;;;;;;;;5028648;28;20136;-63
2021/09/05 02:25:37;;;;;;;13.25;3.67;;;;;;;;;;5026321;28;20550;-63
2021/09/05 02:28:05;;;;;;;6.70;3.25;;;;;;;;;;5022421;28;20072;-63
2021/09/05 02:30:31;;;;;;;9.73;3.17;;;;;;;;;;5020177;28;20503;-63
2021/09/05 02:32:57;;;;;;;9.25;3.35;;;;;;;;;;5022614;28;20132;-63
2021/09/05 02:35:24;;;;;;;12.30;4.00;;;;;;;;;;5027378;28;20077;-63
2021/09/05 02:37:53;;;;;;;8.70;4.10;;;;;;;;;;5024871;28;20124;-63
2021/09/05 02:40:19;;;;;;;10.13;4.05;;;;;;;;;;5026093;28;20136;-63
2021/09/05 02:42:46;;;;;;;15.00;4.07;;;;;;;;;;5023808;28;20132;-64
2021/09/05 02:45:12;;;;;;;7.45;3.30;;;;;;;;;;5022164;28;20616;-63
2021/09/05 02:47:39;;;;;;;8.70;3.40;;;;;;;;;;5023018;28;20714;-63
2021/09/05 02:50:05;;;;;;;10.07;3.60;;;;;;;;;;5034004;28;20432;-63
2021/09/05 02:52:32;;;;;;;11.18;3.35;;;;;;;;;;5022627;28;20129;-64
2021/09/05 02:54:59;;;;;;;6.30;2.90;;;;;;;;;;5025599;28;20152;-63
2021/09/05 02:57:26;;;;;;;8.52;2.92;;;;;;;;;;5026584;28;20089;-63
2021/09/05 02:59:52;;;;;;;7.53;2.90;;;;;;;;;;5020682;28;20052;-63
2021/09/05 03:02:19;;;;;;;5.68;2.33;;;;;;;;;;5026230;28;20132;-64
2021/09/05 03:04:46;;;;;;;12.23;2.92;;;;;;;;;;5024992;28;20077;-63
2021/09/05 03:07:13;;;;;;;5.93;1.98;;;;;;;;;;5021423;28;20069;-63
2021/09/05 03:09:40;;;;;;;7.15;2.90;;;;;;;;;;5026568;28;20540;-63
2021/09/05 03:12:07;;;;;;;6.90;3.35;;;;;;;;;;5023837;28;20085;-64
2021/09/05 03:14:33;;;;;;;7.00;3.05;;;;;;;;;;5028986;28;23374;-63
2021/09/05 03:17:00;;;;;;;4.95;2.70;;;;;;;;;;5024313;28;20095;-63
2021/09/05 03:19:26;;;;;;;12.95;3.63;;;;;;;;;;5017254;28;20077;-63
2021/09/05 03:21:53;;;;;;;6.97;2.70;;;;;;;;;;5024736;28;20084;-63
2021/09/05 03:24:19;;;;;;;5.53;2.70;;;;;;;;;;5020984;28;20524;-63
2021/09/05 03:26:46;;;;;;;5.93;2.73;;;;;;;;;;5024917;28;20132;-63
2021/09/05 03:29:12;;;;;;;6.38;2.70;;;;;;;;;;5023463;28;20078;-64
2021/09/05 03:31:39;;;;;;;5.32;2.30;;;;;;;;;;5020254;28;20353;-63
2021/09/05 03:34:06;;;;;;;6.05;2.63;;;;;;;;;;5028878;28;20135;-63
2021/09/05 03:36:33;;;;;;;5.63;2.58;;;;;;;;;;5006404;28;20125;-63
2021/09/05 03:38:59;;;;;;;10.55;2.15;;;;;;;;;;5025817;28;20485;-63
2021/09/05 03:41:26;;;;;;;6.00;2.15;;;;;;;;;;5022702;28;20074;-63
2021/09/05 03:43:52;;;;;;;4.85;2.28;;;;;;;;;;5021863;28;20129;-63
2021/09/05 03:46:19;;;;;;;4.22;2.20;;;;;;;;;;5021709;28;20041;-63
2021/09/05 03:48:47;;;;;;;6.28;2.47;;;;;;;;;;5026204;28;20072;-63
2021/09/05 03:51:13;;;;;;;2.95;1.83;;;;;;;;;;5021565;28;20140;-63
2021/09/05 03:53:40;;;;;;;3.03;2.10;;;;;;;;;;5025502;28;20067;-63
2021/09/05 03:56:06;;;;;;;4.18;2.05;;;;;;;;;;5026406;28;20080;-63
2021/09/05 03:58:33;;;;;;;4.65;2.30;;;;;;;;;;5025866;28;20067;-63
2021/09/05 04:00:59;;;;;;;7.88;1.92;;;;;;;;;;5020763;28;20136;-63
2021/09/05 04:03:27;;;;;;;6.80;1.90;;;;;;;;;;5020728;28;20096;-63
2021/09/05 04:05:54;;;;;;;4.47;2.08;;;;;;;;;;5023214;28;20545;-63
2021/09/05 04:08:30;;;;;;;4.00;1.90;;;;;;;;;;5017679;28;20085;-63
2021/09/05 04:10:57;;;;;;;6.80;2.03;;;;;;;;;;5020784;28;20084;-63
2021/09/05 04:13:23;;;;;;;5.63;2.30;;;;;;;;;;5022237;28;20164;-62
2021/09/05 04:15:50;;;;;;;6.57;2.75;;;;;;;;;;5026351;28;20071;-63
2021/09/05 04:18:16;;;;;;;2.80;2.05;;;;;;;;;;5022230;28;20045;-63
2021/09/05 04:20:43;;;;;;;8.13;2.30;;;;;;;;;;5018046;28;20128;-63
2021/09/05 04:23:09;;;;;;;5.15;2.80;;;;;;;;;;5029171;28;20081;-62
2021/09/05 04:25:36;;;;;;;5.30;2.17;;;;;;;;;;5021323;28;20050;-63
2021/09/05 04:28:03;;;;;;;4.85;2.35;;;;;;;;;;5021259;28;20049;-63
2021/09/05 04:30:29;;;;;;;4.22;2.42;;;;;;;;;;5025484;28;20570;-62
2021/09/05 04:32:56;;;;;;;3.38;2.10;;;;;;;;;;5023321;28;20466;-63
2021/09/05 04:35:22;;;;;;;3.83;2.30;;;;;;;;;;5021944;28;20145;-63
2021/09/05 04:37:48;;;;;;;5.95;2.20;;;;;;;;;;5021044;28;20070;-63
2021/09/05 04:40:15;;;;;;;5.00;2.22;;;;;;;;;;5013612;28;20132;-63
2021/09/05 04:42:42;;;;;;;2.83;2.00;;;;;;;;;;5018220;28;20129;-63
2021/09/05 04:45:08;;;;;;;3.15;1.85;;;;;;;;;;5023011;28;20519;-63
2021/09/05 04:47:35;;;;;;;2.83;1.88;;;;;;;;;;5019057;28;20136;-63
2021/09/05 04:50:02;;;;;;;1.92;1.40;;;;;;;;;;5020822;28;20046;-63
2021/09/05 04:52:29;;;;;;;4.20;1.90;;;;;;;;;;5026219;28;20124;-62
2021/09/05 04:54:55;;;;;;;8.13;2.45;;;;;;;;;;5018668;28;20461;-62
2021/09/05 04:57:22;;;;;;;4.40;1.92;;;;;;;;;;5018941;28;20188;-63
2021/09/05 04:59:48;;;;;;;2.47;1.63;;;;;;;;;;5027161;28;20049;-63
2021/09/05 05:02:20;;;;;;;3.75;1.88;;;;;;;;;;5023923;28;20041;-63
2021/09/05 05:04:47;;;;;;;2.78;1.98;;;;;;;;;;5019839;28;20718;-63
2021/09/05 05:07:13;;;;;;;4.25;1.88;;;;;;;;;;5018560;28;20054;-63
2021/09/05 05:09:44;;;;;;;3.80;2.22;;;;;;;;;;5022895;28;20072;-63
2021/09/05 05:12:13;;;;;;;2.65;1.95;;;;;;;;;;5022972;28;20057;-63
2021/09/05 05:14:40;;;;;;;3.72;1.98;;;;;;;;;;5022415;28;20129;-63
2021/09/05 05:17:06;;;;;;;2.37;1.80;;;;;;;;;;5021115;28;20077;-63
2021/09/05 05:19:33;;;;;;;5.20;1.77;;;;;;;;;;5021556;28;20129;-63
2021/09/05 05:21:59;;;;;;;3.00;1.50;;;;;;;;;;5020751;28;20137;-63
2021/09/05 05:24:27;;;;;;;5.38;1.80;;;;;;;;;;5028065;28;20124;-62
2021/09/05 05:26:54;;;;;;;2.33;1.58;;;;;;;;;;5020971;28;20084;-63
2021/09/05 05:29:20;;;;;;;3.95;2.00;;;;;;;;;;5028237;28;20085;-63
2021/09/05 05:31:47;;;;;;;4.13;1.52;;;;;;;;;;5027699;28;20408;-62
2021/09/05 05:34:14;;;;;;;2.15;1.42;;;;;;;;;;5026476;28;20054;-62
2021/09/05 05:36:40;;;;;;;3.10;1.73;;;;;;;;;;5025816;28;20096;-63
2021/09/05 05:39:07;;;;;;;2.35;1.70;;;;;;;;;;5024785;28;20129;-62
2021/09/05 05:41:34;;;;;;;4.68;1.73;;;;;;;;;;5027619;28;20167;-63
2021/09/05 05:44:00;;;;;;;3.15;1.90;;;;;;;;;;5022148;28;20621;-65
2021/09/05 05:46:27;;;;;;;3.67;2.00;;;;;;;;;;5026611;28;20128;-65
2021/09/05 05:48:53;;;;;;;4.60;2.20;;;;;;;;;;5024801;28;20580;-65
2021/09/05 05:51:20;;;;;;;3.42;1.88;;;;;;;;;;5020644;28;20139;-65
2021/09/05 05:53:46;;;;;;;1.85;1.58;;;;;;;;;;5024744;28;20124;-65
2021/09/05 05:56:13;;;;;;;3.88;1.77;;;;;;;;;;5019664;28;20133;-65
2021/09/05 05:58:39;;;;;;;3.05;1.90;;;;;;;;;;5027287;28;20124;-65
2021/09/05 06:01:07;;;;;;;4.70;1.83;;;;;;;;;;5023296;28;20102;-65
2021/09/05 06:03:36;;;;;;;4.10;1.80;;;;;;;;;;5022396;28;20580;-65
2021/09/05 06:06:04;;;;;;;2.17;1.52;;;;;;;;;;5029688;28;20081;-65
2021/09/05 06:08:30;;;;;;;2.30;1.60;;;;;;;;;;5023157;28;20128;-65
2021/09/05 06:10:57;;;;;;;2.10;1.60;;;;;;;;;;5025387;28;20416;-65
2021/09/05 06:13:23;;;;;;;2.50;1.63;;;;;;;;;;5022064;28;20133;-65
2021/09/05 06:15:50;;;;;;;2.25;1.60;;;;;;;;;;5028699;28;20088;-65
2021/09/05 06:18:17;;;;;;;4.90;1.30;;;;;;;;;;5024208;28;20073;-65
2021/09/05 06:20:43;;;;;;;2.00;1.30;;;;;;;;;;5002126;28;20488;-65
2021/09/05 06:23:09;;;;;;;1.90;1.17;;;;;;;;;;5019718;28;20125;-65
2021/09/05 06:25:36;;;;;;;1.73;1.40;;;;;;;;;;5023617;28;20231;-65
2021/09/05 06:28:03;;;;;;;4.53;1.63;;;;;;;;;;5023505;28;20592;-65
2021/09/05 06:30:29;;;;;;;1.98;1.40;;;;;;;;;;5021110;28;20064;-65
2021/09/05 06:32:55;;;;;;;3.20;1.50;;;;;;;;;;5018214;28;20049;-65
2021/09/05 06:35:22;;;;;;;2.53;1.45;;;;;;;;;;5030776;28;20135;-65
2021/09/05 06:37:49;;;;;;;3.35;1.58;;;;;;;;;;5021803;28;20041;-65
2021/09/05 06:40:16;;;;;;;1.85;1.50;;;;;;;;;;5023941;28;20455;-64
2021/09/05 06:42:44;;;;;;;2.63;1.17;;;;;;;;;;5018644;28;20141;-65
2021/09/05 06:45:10;;;;;;;2.30;1.48;;;;;;;;;;5021154;28;20595;-65
2021/09/05 06:47:36;;;;;;;3.65;1.73;;;;;;;;;;5022024;28;20140;-65
2021/09/05 06:50:03;;;;;;;2.17;1.60;;;;;;;;;;5022939;28;20096;-65
2021/09/05 06:52:30;;;;;;;1.83;1.30;;;;;;;;;;5025578;28;20161;-65
2021/09/05 06:55:00;;;;;;;2.03;1.35;;;;;;;;;;5023444;28;20060;-65
2021/09/05 06:57:27;;;;;;;3.20;0.90;;;;;;;;;;5018617;28;20053;-65
2021/09/05 06:59:53;;;;;;;2.08;1.42;;;;;;;;;;5024005;28;20550;-65
2021/09/05 07:02:21;;;;;;;2.88;1.02;;;;;;;;;;5024697;28;20093;-62
2021/09/05 07:04:48;;;;;;;;;;;;;;;;;;5025082;28;20042;-62
2021/09/05 07:07:25;;;;;;;2.03;1.33;;;;;;;;;;5022755;28;20036;-62
2021/09/05 07:09:52;;;;;;;3.80;1.30;;;;;;;;;;5023305;28;20703;-62
2021/09/05 07:12:18;;;;;;;3.65;1.30;;;;;;;;;;5023034;28;20505;-62
2021/09/05 07:14:45;;;;;;;1.40;1.30;;;;;;;;;;5022314;28;20500;-62
2021/09/05 07:17:12;;;;;;;1.70;1.30;;;;;;;;;;5020443;28;20137;-62
2021/09/05 07:19:40;;;;;;;;;;;;;;;;;;5020342;28;20690;-62
2021/09/05 07:22:06;;;;;;;4.80;1.52;;;;;;;;;;5021493;28;20035;-62
2021/09/05 07:24:32;;;;;;;1.58;1.25;;;;;;;;;;5020252;28;20128;-63
2021/09/05 07:26:59;;;;;;;1.60;1.25;;;;;;;;;;5025601;28;20045;-62
2021/09/05 07:29:26;;;;;;;2.55;1.17;;;;;;;;;;5019355;28;20497;-62
2021/09/05 07:31:52;;;;;;;1.83;1.17;;;;;;;;;;5019637;28;20132;-62
2021/09/05 07:34:20;;;;;;;3.08;1.30;;;;;;;;;;5030219;28;20150;-62
2021/09/05 07:36:46;;;;;;;1.52;0.88;;;;;;;;;;5017475;28;20132;-62
2021/09/05 07:39:13;;;;;;;4.55;1.50;;;;;;;;;;5021965;28;20077;-62
2021/09/05 07:41:39;;;;;;;1.80;1.13;;;;;;;;;;5020621;28;20552;-62
2021/09/05 07:44:06;;;;;;;1.92;1.17;;;;;;;;;;5020312;28;20160;-62
2021/09/05 07:46:32;;;;;;;1.42;0.98;;;;;;;;;;5023703;28;20103;-62
2021/09/05 07:48:59;;;;;;;3.20;1.20;;;;;;;;;;5022209;28;20140;-62
2021/09/05 07:51:25;;;;;;;1.50;0.90;;;;;;;;;;5014316;28;20132;-62
2021/09/05 07:53:53;;;;;;;2.17;1.20;;;;;;;;;;5016199;28;20055;-62
2021/09/05 07:56:22;;;;;;;1.17;0.82;;;;;;;;;;5022719;28;20592;-62
2021/09/05 07:58:49;;;;;;;1.27;1.00;;;;;;;;;;5019764;28;20037;-63
2021/09/05 08:01:16;;;;;;;1.53;1.17;;;;;;;;;;5014811;28;20141;-62
2021/09/05 08:03:43;;;;;;;1.52;1.17;;;;;;;;;;5022746;28;20093;-62
2021/09/05 08:06:10;;;;;;;4.18;1.17;;;;;;;;;;5017482;28;20061;-62
2021/09/05 08:08:36;;;;;;;1.92;1.17;;;;;;;;;;5024768;28;20071;-62
2021/09/05 08:11:04;;;;;;;1.95;1.38;;;;;;;;;;5019529;28;20081;-62
2021/09/05 08:13:31;;;;;;;4.55;1.35;;;;;;;;;;5020116;28;20128;-62
2021/09/05 08:16:00;;;;;;;2.67;1.10;;;;;;;;;;5026495;28;20132;-62
2021/09/05 08:18:35;;;;;;;1.35;1.08;;;;;;;;;;5023981;28;20045;-62
2021/09/05 08:21:02;;;;;;;1.90;1.10;;;;;;;;;;5024258;28;20164;-62
2021/09/05 08:23:28;;;;;;;1.42;1.05;;;;;;;;;;5021546;28;20481;-62
2021/09/05 08:25:55;;;;;;;1.27;1.02;;;;;;;;;;5023524;28;20537;-62
2021/09/05 08:28:21;;;;;;;1.25;1.13;;;;;;;;;;5016484;28;20121;-62
2021/09/05 08:30:48;;;;;;;1.35;1.05;;;;;;;;;;5019115;28;20128;-63
2021/09/05 08:33:15;;;;;;;1.50;1.27;;;;;;;;;;5017239;28;20592;-62
2021/09/05 08:35:42;;;;;;;1.95;1.20;;;;;;;;;;5017290;28;20049;-62
2021/09/05 08:38:09;;;;;;;2.15;1.35;;;;;;;;;;5018852;28;20132;-62
2021/09/05 08:40:38;;;;;;;4.63;1.20;;;;;;;;;;5021126;28;20129;-62
2021/09/05 08:43:06;;;;;;;1.42;1.27;;;;;;;;;;5018420;28;20173;-62
2021/09/05 08:45:33;;;;;;;1.73;1.13;;;;;;;;;;5018268;28;20476;-63
2021/09/05 08:48:00;;;;;;;2.10;1.30;;;;;;;;;;5024572;28;20046;-62
2021/09/05 08:50:27;;;;;;;3.78;1.70;;;;;;;;;;5021459;28;20096;-62
2021/09/05 08:52:54;;;;;;;2.17;1.50;;;;;;;;;;5022690;28;20508;-62
2021/09/05 08:55:21;;;;;;;3.53;1.20;;;;;;;;;;5021965;28;20137;-62
2021/09/05 08:57:47;;;;;;;2.97;1.97;;;;;;;;;;5017495;28;20474;-62
2021/09/05 09:00:14;;;;;;;2.42;1.60;;;;;;;;;;5016839;28;20128;-62
2021/09/05 09:02:47;;;;;;;2.33;1.35;;;;;;;;;;5022667;28;20148;-62
2021/09/05 09:05:29;;;;;;;2.17;1.40;;;;;;;;;;5026890;28;20099;-62
2021/09/05 09:07:57;;;;;;;5.22;1.67;;;;;;;;;;5025108;28;20128;-62
2021/09/05 09:10:24;;;;;;;2.08;1.45;;;;;;;;;;5023781;28;20140;-62
2021/09/05 09:12:50;;;;;;;2.75;1.40;;;;;;;;;;5019618;28;20052;-62
2021/09/05 09:15:18;;;;;;;2.35;1.23;;;;;;;;;;5020883;28;20132;-62
2021/09/05 09:17:45;;;;;;;1.90;1.20;;;;;;;;;;5027417;28;20128;-62
2021/09/05 09:20:11;;;;;;;1.70;1.10;;;;;;;;;;5025811;28;20110;-62
2021/09/05 09:22:37;;;;;;;2.85;1.00;;;;;;;;;;5027784;28;20538;-62
2021/09/05 09:25:06;;;;;;;1.88;1.33;;;;;;;;;;5023922;28;20562;-62
2021/09/05 09:27:32;;;;;;;2.35;1.10;;;;;;;;;;5018720;28;20133;-62
2021/09/05 09:29:59;;;;;;;2.58;1.30;;;;;;;;;;5020370;28;20049;-62
2021/09/05 09:32:26;;;;;;;1.50;1.30;;;;;;;;;;5019458;28;20095;-62
2021/09/05 09:34:53;;;;;;;2.70;1.60;;;;;;;;;;5020090;28;20792;-62
2021/09/05 09:37:20;;;;;;;2.13;1.27;;;;;;;;;;5025078;28;20052;-62
2021/09/05 09:39:47;;;;;;;;;;;;;;;;;;5028641;28;20073;-62
2021/09/05 09:42:45;;;;;;;1.98;1.20;;;;;;;;;;5027159;28;20384;-62
2021/09/05 09:45:13;;;;;;;2.67;1.23;;;;;;;;;;4990792;28;20066;-62
2021/09/05 09:47:39;;;;;;;;;;;;;;;;;;5023552;28;20792;-62
2021/09/05 09:50:06;;;;;;;3.17;1.40;;;;;;;;;;5024956;28;19956;-62
2021/09/05 09:52:34;;;;;;;;;;;;;;;;;;5021048;28;20049;-62
2021/09/05 09:55:00;;;;;;;2.20;1.50;;;;;;;;;;5021342;28;20040;-62
2021/09/05 09:57:27;;;;;;;1.55;1.30;;;;;;;;;;5022078;28;20060;-62
2021/09/05 09:59:54;;;;;;;2.20;1.42;;;;;;;;;;5023578;28;20461;-62
2021/09/05 10:02:22;;;;;;;1.85;1.20;;;;;;;;;;5028364;28;20124;-62
2021/09/05 10:04:50;;;;;;;1.45;1.23;;;;;;;;;;5025592;28;20526;-62
2021/09/05 10:07:17;;;;;;;4.85;1.13;;;;;;;;;;5021536;28;20052;-62
2021/09/05 10:09:45;;;;;;;1.30;1.10;;;;;;;;;;5026321;28;20452;-62
2021/09/05 10:12:12;;;;;;;2.10;1.20;;;;;;;;;;5019227;28;20140;-62
2021/09/05 10:14:39;;;;;;;3.38;1.33;;;;;;;;;;5021866;28;20544;-62
2021/09/05 10:17:06;;;;;;;4.87;1.97;;;;;;;;;;5022987;28;20058;-62
2021/09/05 10:19:37;;;;;;;9.20;1.60;;;;;;;;;;5028157;28;20404;-62
2021/09/05 10:22:04;;;;;;;1.80;1.35;;;;;;;;;;5018546;28;20096;-62
2021/09/05 10:24:49;;;;;;;3.30;1.40;;;;;;;;;;5020755;28;20597;-62
2021/09/05 10:27:16;;;;;;;2.85;1.45;;;;;;;;;;5020125;28;20128;-62
2021/09/05 10:30:09;;;;;;;2.35;1.50;;;;;;;;;;5025493;28;20153;-62
2021/09/05 10:32:56;;;;;;;4.35;1.60;;;;;;;;;;4989335;28;20125;-63
2021/09/05 10:35:28;;;;;;;2.60;1.17;;;;;;;;;;5018570;28;20196;-62
2021/09/05 10:38:10;;;;;;;2.03;1.52;;;;;;;;;;5018651;28;20133;-62
2021/09/05 10:40:49;;;;;;;1.38;1.10;;;;;;;;;;5024817;28;20125;-62
2021/09/05 10:43:16;;;;;;;4.15;1.60;;;;;;;;;;5026086;28;20128;-63
2021/09/05 10:45:44;;;;;;;2.40;1.25;;;;;;;;;;5022234;28;20461;-62
2021/09/05 10:48:30;;;;;;;3.65;1.10;;;;;;;;;;5024846;28;20049;-62
2021/09/05 10:51:07;;;;;;;2.80;1.27;;;;;;;;;;5028131;28;20087;-62
2021/09/05 10:53:36;;;;;;;2.15;1.20;;;;;;;;;;5022130;28;20162;-62
2021/09/05 10:56:10;;;;;;;1.75;1.17;;;;;;;;;;5023005;28;20052;-62
2021/09/05 10:58:37;;;;;;;3.40;1.48;;;;;;;;;;5003892;28;20121;-62
2021/09/05 11:01:04;;;;;;;;;;;;;;;;;;5023920;28;20093;-62
2021/09/05 11:03:30;;;;;;;6.43;1.30;;;;;;;;;;5024491;28;19921;-62
2021/09/05 11:06:16;;;;;;;2.77;1.60;;;;;;;;;;5024849;28;20061;-62
2021/09/05 11:08:43;;;;;;;3.67;1.30;;;;;;;;;;5021326;28;20056;-63
2021/09/05 11:11:09;;;;;;;2.55;1.50;;;;;;;;;;5023669;28;20493;-63
2021/09/05 11:13:45;;;;;;;3.80;1.87;;;;;;;;;;5020252;28;20123;-62
2021/09/05 11:16:16;;;;;;;1.65;1.08;;;;;;;;;;5022554;28;20132;-62
2021/09/05 11:18:43;;;;;;;2.67;1.60;;;;;;;;;;5018854;28;20045;-63
2021/09/05 11:21:24;;;;;;;2.40;1.40;;;;;;;;;;5028224;28;20135;-62
2021/09/05 11:23:52;;;;;;;2.65;1.42;;;;;;;;;;5025713;28;20124;-63
2021/09/05 11:26:18;;;;;;;3.45;1.50;;;;;;;;;;5024287;28;20049;-62
2021/09/05 11:28:44;;;;;;;2.45;1.70;;;;;;;;;;5023739;28;20125;-63
2021/09/05 11:31:11;;;;;;;1.50;1.13;;;;;;;;;;5023733;28;20171;-63
2021/09/05 11:33:37;;;;;;;1.50;1.20;;;;;;;;;;5023939;28;20150;-62
2021/09/05 11:36:07;;;;;;;3.17;1.50;;;;;;;;;;5017690;28;20084;-62
2021/09/05 11:38:33;;;;;;;4.95;1.50;;;;;;;;;;5020615;28;20119;-63
2021/09/05 11:41:01;;;;;;;7.30;1.73;;;;;;;;;;5018902;28;20099;-62
2021/09/05 11:43:31;;;;;;;1.85;1.33;;;;;;;;;;5019369;28;20045;-62
2021/09/05 11:45:58;;;;;;;2.25;1.50;;;;;;;;;;5020456;28;20144;-62
2021/09/05 11:48:25;;;;;;;5.95;1.90;;;;;;;;;;5024455;28;20080;-63
2021/09/05 11:50:52;;;;;;;2.70;1.73;;;;;;;;;;5018767;28;20149;-62
2021/09/05 11:53:22;;;;;;;3.38;1.40;;;;;;;;;;5020852;28;20103;-62
2021/09/05 11:55:52;;;;;;;4.63;1.65;;;;;;;;;;5022173;28;20069;-62
2021/09/05 11:58:19;;;;;;;3.13;1.67;;;;;;;;;;5016729;28;20122;-62
2021/09/05 12:00:45;;;;;;;6.60;1.75;;;;;;;;;;5023391;28;20095;-62
2021/09/05 12:03:13;;;;;;;2.60;1.33;;;;;;;;;;5020777;28;20056;-62
2021/09/05 12:05:41;;;;;;;3.45;1.67;;;;;;;;;;5022920;28;20054;-62
2021/09/05 12:08:07;;;;;;;3.03;1.67;;;;;;;;;;5021852;28;20091;-62
2021/09/05 12:10:35;;;;;;;4.15;1.90;;;;;;;;;;5022271;28;20053;-62
2021/09/05 12:13:02;;;;;;;2.33;1.60;;;;;;;;;;5025942;28;20129;-62
2021/09/05 12:15:32;;;;;;;5.05;1.40;;;;;;;;;;5021154;28;20088;-62
2021/09/05 12:17:59;;;;;;;2.92;1.38;;;;;;;;;;5019108;28;20080;-63
2021/09/05 12:20:38;;;;;;;1.63;1.30;;;;;;;;;;5023222;28;20049;-62
2021/09/05 12:23:04;;;;;;;3.33;1.15;;;;;;;;;;5021636;28;20504;-62
2021/09/05 12:25:35;;;;;;;3.08;1.88;;;;;;;;;;5020786;28;20489;-62
2021/09/05 12:28:05;;;;;;;2.38;1.70;;;;;;;;;;5019707;28;20055;-62
2021/09/05 12:30:39;;;;;;;5.97;1.60;;;;;;;;;;5015684;28;20137;-63
2021/09/05 12:33:13;;;;;;;3.20;1.70;;;;;;;;;;5016330;28;20201;-62
2021/09/05 12:35:40;;;;;;;4.20;1.85;;;;;;;;;;5021451;28;20134;-62
2021/09/05 12:38:07;;;;;;;;;;;;;;;;;;5022512;28;20193;-62
2021/09/05 12:40:34;;;;;;;2.90;1.58;;;;;;;;;;5023780;28;20056;-62
2021/09/05 12:43:01;;;;;;;3.25;1.63;;;;;;;;;;5021850;28;20073;-62
2021/09/05 12:45:28;;;;;;;5.50;1.80;;;;;;;;;;5019039;28;20458;-62
2021/09/05 12:48:11;;;;;;;2.88;1.80;;;;;;;;;;5022043;28;20049;-62
2021/09/05 12:50:38;;;;;;;4.30;2.15;;;;;;;;;;5025784;28;20608;-63
2021/09/05 12:53:11;;;;;;;2.28;1.65;;;;;;;;;;5021633;28;20137;-62
2021/09/05 12:55:38;;;;;;;4.78;1.80;;;;;;;;;;5028545;28;20144;-63
2021/09/05 12:58:05;;;;;;;3.47;1.90;;;;;;;;;;5024058;28;20050;-62
2021/09/05 13:00:32;;;;;;;4.30;2.15;;;;;;;;;;5030985;28;20156;-63
2021/09/05 13:03:03;;;;;;;2.70;1.80;;;;;;;;;;5021162;28;20062;-62
2021/09/05 13:05:31;;;;;;;2.50;1.70;;;;;;;;;;5023665;28;20075;-63
2021/09/05 13:07:57;;;;;;;2.78;1.95;;;;;;;;;;5026104;28;20057;-63
2021/09/05 13:10:24;;;;;;;4.50;2.00;;;;;;;;;;5031673;28;20867;-62
2021/09/05 13:12:51;;;;;;;2.40;1.90;;;;;;;;;;5027959;28;20658;-62
2021/09/05 13:15:17;;;;;;;2.90;1.92;;;;;;;;;;5027533;28;20042;-62
2021/09/05 13:17:44;;;;;;;4.55;1.85;;;;;;;;;;5020998;28;20136;-63
2021/09/05 13:20:11;;;;;;;2.95;2.08;;;;;;;;;;5030624;28;20046;-62
2021/09/05 13:22:37;;;;;;;5.25;2.30;;;;;;;;;;5021931;28;20056;-62
2021/09/05 13:25:04;;;;;;;4.10;1.95;;;;;;;;;;5022414;28;20088;-62
2021/09/05 13:27:31;;;;;;;;;;;;;;;;;;5029291;28;20049;-62
2021/09/05 13:29:59;;;;;;;3.67;1.95;;;;;;;;;;5024531;28;19925;-62
2021/09/05 13:32:26;;;;;;;2.33;1.70;;;;;;;;;;5007450;28;20140;-63
2021/09/05 13:34:52;;;;;;;4.78;1.83;;;;;;;;;;5023277;28;20133;-63
2021/09/05 13:37:19;;;;;;;3.15;1.90;;;;;;;;;;5022734;28;20049;-63
2021/09/05 13:39:45;;;;;;;2.75;2.00;;;;;;;;;;5030390;28;20144;-62
2021/09/05 13:42:11;;;;;;;3.63;2.60;;;;;;;;;;5019548;28;20137;-62
2021/09/05 13:44:38;;;;;;;4.10;2.42;;;;;;;;;;5023601;28;20061;-63
2021/09/05 13:47:05;;;;;;;5.70;2.30;;;;;;;;;;5027293;28;20117;-63
2021/09/05 13:49:42;;;;;;;;;;;;;;;;;;5027014;28;20050;-64
2021/09/05 13:52:09;;;;;;;4.32;2.47;;;;;;;;;;5014419;28;20024;-64
2021/09/05 13:54:35;;;;;;;5.47;2.23;;;;;;;;;;5020479;28;20046;-63
2021/09/05 13:57:02;;;;;;;5.50;2.72;;;;;;;;;;5017176;28;20304;-64
2021/09/05 13:59:28;;;;;;;4.78;2.35;;;;;;;;;;5020294;28;20148;-64
2021/09/05 14:01:55;;;;;;;5.20;2.20;;;;;;;;;;5021921;28;20135;-63
2021/09/05 14:04:22;;;;;;;4.75;2.60;;;;;;;;;;5019727;28;20053;-63
2021/09/05 14:06:48;;;;;;;6.80;2.60;;;;;;;;;;5022173;28;20485;-64
2021/09/05 14:09:15;;;;;;;5.55;2.45;;;;;;;;;;5023481;28;20052;-63
2021/09/05 14:11:41;;;;;;;7.30;2.30;;;;;;;;;;5022677;28;20477;-63
2021/09/05 14:14:08;;;;;;;5.57;2.17;;;;;;;;;;5007435;28;20136;-63
2021/09/05 14:16:34;;;;;;;6.22;2.53;;;;;;;;;;5021098;28;20054;-63
2021/09/05 14:19:01;;;;;;;3.97;2.80;;;;;;;;;;5027270;28;20057;-63
2021/09/05 14:21:28;;;;;;;;;;;;;;;;;;5031518;28;20081;-63
2021/09/05 14:23:55;;;;;;;3.80;2.40;;;;;;;;;;5021704;28;19962;-63
2021/09/05 14:26:24;;;;;;;3.65;2.70;;;;;;;;;;5022814;28;20159;-63
2021/09/05 14:28:53;;;;;;;4.60;2.40;;;;;;;;;;5026790;28;20594;-63
2021/09/05 14:31:34;;;;;;;4.30;2.40;;;;;;;;;;5017412;28;20142;-63
2021/09/05 14:55:51;;;;;;;2.78;2.10;;;;;;;;;;5020029;28;20132;-63
2021/09/05 14:58:18;;;;;;;6.40;2.40;;;;;;;;;;5024010;28;20080;-63
2021/09/05 15:00:48;;;;;;;3.55;2.55;;;;;;;;;;5021558;28;20081;-63
2021/09/05 15:03:25;;;;;;;4.65;2.50;;;;;;;;;;5021014;28;20056;-63
2021/09/05 15:06:08;;;;;;;4.70;2.20;;;;;;;;;;5021715;28;20049;-63
2021/09/05 15:11:20;;;;;;;4.20;2.50;;;;;;;;;;5024231;28;20830;-63
2021/09/05 15:13:46;;;;;;;5.77;2.40;;;;;;;;;;5023824;28;20142;-63